createdAt,value
2022-11-27T00:00:35.826Z,0.00
2022-11-27T00:01:35.831Z,0.00
2022-11-27T00:02:40.390Z,0.00
2022-11-27T00:03:35.919Z,0.00
2022-11-27T00:04:35.778Z,0.00
2022-11-27T00:05:35.788Z,0.00
2022-11-27T00:06:35.766Z,0.00
2022-11-27T00:07:35.882Z,0.00
2022-11-27T00:08:35.756Z,0.00
2022-11-27T00:09:35.751Z,0.00
2022-11-27T00:10:35.721Z,0.00
2022-11-27T00:11:35.731Z,0.00
2022-11-27T00:12:35.692Z,0.00
2022-11-27T00:13:35.672Z,0.00
2022-11-27T00:14:35.699Z,0.00
2022-11-27T00:15:35.714Z,0.00
2022-11-27T00:16:35.679Z,0.00
2022-11-27T00:17:35.645Z,0.00
2022-11-27T00:18:35.649Z,0.00
2022-11-27T00:19:35.602Z,0.00
2022-11-27T00:20:35.661Z,0.00
2022-11-27T00:21:35.612Z,0.00
2022-11-27T00:22:35.586Z,0.00
2022-11-27T00:23:35.586Z,0.00
2022-11-27T00:24:35.581Z,0.00
2022-11-27T00:25:35.560Z,0.00
2022-11-27T00:26:38.072Z,0.00
2022-11-27T00:27:35.557Z,0.00
2022-11-27T00:28:35.537Z,0.00
2022-11-27T00:29:35.497Z,0.00
2022-11-27T00:30:35.494Z,0.00
2022-11-27T00:31:35.594Z,0.00
2022-11-27T00:32:35.506Z,0.00
2022-11-27T00:33:35.450Z,0.00
2022-11-27T00:34:35.471Z,0.00
2022-11-27T00:35:35.460Z,0.00
2022-11-27T00:36:46.590Z,0.00
2022-11-27T00:37:35.435Z,0.00
2022-11-27T00:38:38.717Z,0.00
2022-11-27T00:39:35.420Z,0.00
2022-11-27T00:40:35.396Z,0.00
2022-11-27T00:41:35.378Z,0.00
2022-11-27T00:42:35.365Z,0.00
2022-11-27T00:43:43.533Z,0.00
2022-11-27T00:44:35.367Z,0.00
2022-11-27T00:45:35.341Z,0.00
2022-11-27T00:46:35.453Z,0.00
2022-11-27T00:47:35.323Z,0.00
2022-11-27T00:48:35.328Z,0.00
2022-11-27T00:49:35.289Z,0.00
2022-11-27T00:50:35.294Z,0.00
2022-11-27T00:51:35.313Z,0.00
2022-11-27T00:52:35.257Z,0.00
2022-11-27T00:53:35.269Z,0.00
2022-11-27T00:54:35.220Z,0.00
2022-11-27T00:55:35.219Z,0.00
2022-11-27T00:56:41.813Z,0.00
2022-11-27T00:57:35.238Z,0.00
2022-11-27T00:58:35.195Z,0.00
2022-11-27T00:59:35.200Z,0.00
2022-11-27T01:00:35.180Z,0.00
2022-11-27T01:01:35.323Z,0.00
2022-11-27T01:02:35.228Z,0.00
2022-11-27T01:03:35.139Z,0.00
2022-11-27T01:04:35.119Z,0.00
2022-11-27T01:05:35.123Z,0.00
2022-11-27T01:06:35.122Z,0.00
2022-11-27T01:07:35.145Z,0.00
2022-11-27T01:08:35.115Z,0.00
2022-11-27T01:09:35.101Z,0.00
2022-11-27T01:10:35.052Z,0.00
2022-11-27T01:11:35.068Z,0.00
2022-11-27T01:12:35.597Z,0.00
2022-11-27T01:13:35.021Z,0.00
2022-11-27T01:14:35.000Z,0.00
2022-11-27T01:15:35.108Z,0.00
2022-11-27T01:16:35.064Z,0.00
2022-11-27T01:17:34.997Z,0.00
2022-11-27T01:18:34.962Z,0.00
2022-11-27T01:19:34.971Z,0.00
2022-11-27T01:20:34.933Z,0.00
2022-11-27T01:21:34.959Z,0.00
2022-11-27T01:22:34.966Z,0.00
2022-11-27T01:23:34.934Z,0.00
2022-11-27T01:24:34.888Z,0.00
2022-11-27T01:25:34.915Z,0.00
2022-11-27T01:26:34.866Z,0.00
2022-11-27T01:27:34.880Z,0.00
2022-11-27T01:28:34.891Z,0.00
2022-11-27T01:29:34.863Z,0.00
2022-11-27T01:30:34.854Z,0.00
2022-11-27T01:31:34.905Z,0.00
2022-11-27T01:32:34.818Z,0.00
2022-11-27T01:33:34.797Z,0.00
2022-11-27T01:34:34.832Z,0.00
2022-11-27T01:35:34.770Z,0.00
2022-11-27T01:36:34.775Z,0.00
2022-11-27T01:37:34.766Z,0.00
2022-11-27T01:38:34.749Z,0.00
2022-11-27T01:39:34.766Z,0.00
2022-11-27T01:40:34.746Z,0.00
2022-11-27T01:41:34.752Z,0.00
2022-11-27T01:42:34.720Z,0.00
2022-11-27T01:43:34.696Z,0.00
2022-11-27T01:44:34.692Z,0.00
2022-11-27T01:45:34.664Z,0.00
2022-11-27T01:46:41.642Z,0.00
2022-11-27T01:47:34.633Z,0.00
2022-11-27T01:48:34.634Z,0.00
2022-11-27T01:49:34.625Z,0.00
2022-11-27T01:50:34.645Z,0.00
2022-11-27T01:51:34.600Z,0.00
2022-11-27T01:52:34.589Z,0.00
2022-11-27T01:53:34.873Z,0.00
2022-11-27T01:54:34.564Z,0.00
2022-11-27T01:55:34.590Z,0.00
2022-11-27T01:56:34.572Z,0.00
2022-11-27T01:57:34.524Z,0.00
2022-11-27T01:58:34.579Z,0.00
2022-11-27T01:59:34.500Z,0.00
2022-11-27T02:00:34.521Z,0.00
2022-11-27T02:01:34.531Z,0.00
2022-11-27T02:02:34.572Z,0.00
2022-11-27T02:03:34.480Z,0.00
2022-11-27T02:04:34.455Z,0.00
2022-11-27T02:05:34.445Z,0.00
2022-11-27T02:06:34.455Z,0.00
2022-11-27T02:07:34.520Z,0.00
2022-11-27T02:08:34.441Z,0.00
2022-11-27T02:09:34.391Z,0.00
2022-11-27T02:10:34.415Z,0.00
2022-11-27T02:11:34.375Z,0.00
2022-11-27T02:12:34.396Z,0.00
2022-11-27T02:13:34.365Z,0.00
2022-11-27T02:14:34.345Z,0.00
2022-11-27T02:15:34.364Z,0.00
2022-11-27T02:16:34.408Z,0.00
2022-11-27T02:17:34.342Z,0.00
2022-11-27T02:18:34.309Z,0.00
2022-11-27T02:19:34.288Z,0.00
2022-11-27T02:20:34.298Z,0.00
2022-11-27T02:21:34.271Z,0.00
2022-11-27T02:22:34.255Z,0.00
2022-11-27T02:23:34.266Z,0.00
2022-11-27T02:24:34.282Z,0.00
2022-11-27T02:25:34.223Z,0.00
2022-11-27T02:26:34.223Z,0.00
2022-11-27T02:27:34.231Z,0.00
2022-11-27T02:28:34.203Z,0.00
2022-11-27T02:29:34.201Z,0.00
2022-11-27T02:30:34.181Z,0.00
2022-11-27T02:31:34.251Z,0.00
2022-11-27T02:32:34.163Z,0.00
2022-11-27T02:33:34.164Z,0.00
2022-11-27T02:34:34.125Z,0.00
2022-11-27T02:35:34.159Z,0.00
2022-11-27T02:36:34.128Z,0.00
2022-11-27T02:37:34.108Z,0.00
2022-11-27T02:38:34.079Z,0.00
2022-11-27T02:39:34.067Z,0.00
2022-11-27T02:40:34.060Z,0.00
2022-11-27T02:41:34.063Z,0.00
2022-11-27T02:42:34.029Z,0.00
2022-11-27T02:43:34.049Z,0.00
2022-11-27T02:44:34.026Z,0.00
2022-11-27T02:45:34.045Z,0.00
2022-11-27T02:46:34.081Z,0.00
2022-11-27T02:47:34.051Z,0.00
2022-11-27T02:48:33.970Z,0.00
2022-11-27T02:49:33.970Z,0.00
2022-11-27T02:50:33.963Z,0.00
2022-11-27T02:51:33.956Z,0.00
2022-11-27T02:52:33.940Z,0.00
2022-11-27T02:53:33.902Z,0.00
2022-11-27T02:54:33.920Z,0.00
2022-11-27T02:55:33.923Z,0.00
2022-11-27T02:56:33.913Z,0.00
2022-11-27T02:57:33.867Z,0.00
2022-11-27T02:58:33.874Z,0.00
2022-11-27T02:59:33.865Z,0.00
2022-11-27T03:00:33.836Z,0.00
2022-11-27T03:01:33.906Z,0.00
2022-11-27T03:02:33.892Z,0.00
2022-11-27T03:03:33.809Z,0.00
2022-11-27T03:04:33.796Z,0.00
2022-11-27T03:05:33.788Z,0.00
2022-11-27T03:06:33.768Z,0.00
2022-11-27T03:07:33.838Z,0.00
2022-11-27T03:08:33.767Z,0.00
2022-11-27T03:09:33.770Z,0.00
2022-11-27T03:10:33.746Z,0.00
2022-11-27T03:11:33.751Z,0.00
2022-11-27T03:12:33.719Z,0.00
2022-11-27T03:13:33.733Z,0.00
2022-11-27T03:14:33.696Z,0.00
2022-11-27T03:15:33.677Z,0.00
2022-11-27T03:16:33.698Z,0.00
2022-11-27T03:17:33.651Z,0.00
2022-11-27T03:18:33.664Z,0.00
2022-11-27T03:19:33.649Z,0.00
2022-11-27T03:20:33.625Z,0.00
2022-11-27T03:21:33.599Z,0.00
2022-11-27T03:22:33.757Z,0.00
2022-11-27T03:23:33.585Z,0.00
2022-11-27T03:24:33.589Z,0.00
2022-11-27T03:25:33.612Z,0.00
2022-11-27T03:26:33.614Z,0.00
2022-11-27T03:27:33.559Z,0.00
2022-11-27T03:28:33.525Z,0.00
2022-11-27T03:29:33.579Z,0.00
2022-11-27T03:30:33.503Z,0.00
2022-11-27T03:31:33.541Z,0.00
2022-11-27T03:32:33.506Z,0.00
2022-11-27T03:33:33.468Z,0.00
2022-11-27T03:34:33.468Z,0.00
2022-11-27T03:35:33.466Z,0.00
2022-11-27T03:36:33.448Z,0.00
2022-11-27T03:37:33.431Z,0.00
2022-11-27T03:38:33.401Z,0.00
2022-11-27T03:39:33.429Z,0.00
2022-11-27T03:40:33.411Z,0.00
2022-11-27T03:41:33.404Z,0.00
2022-11-27T03:42:33.382Z,0.00
2022-11-27T03:43:33.386Z,0.00
2022-11-27T03:44:33.377Z,0.00
2022-11-27T03:45:33.358Z,0.00
2022-11-27T03:46:33.399Z,0.00
2022-11-27T03:47:33.344Z,0.00
2022-11-27T03:48:33.327Z,0.00
2022-11-27T03:49:33.294Z,0.00
2022-11-27T03:50:33.311Z,0.00
2022-11-27T03:51:33.260Z,0.00
2022-11-27T03:52:33.281Z,0.00
2022-11-27T03:53:33.241Z,0.00
2022-11-27T03:54:33.240Z,0.00
2022-11-27T03:55:33.224Z,0.00
2022-11-27T03:56:33.237Z,0.00
2022-11-27T03:57:33.248Z,0.00
2022-11-27T03:58:33.209Z,0.00
2022-11-27T03:59:33.202Z,0.00
2022-11-27T04:00:33.169Z,0.00
2022-11-27T04:01:33.240Z,0.00
2022-11-27T04:02:33.152Z,0.00
2022-11-27T04:03:33.209Z,0.00
2022-11-27T04:04:33.160Z,0.00
2022-11-27T04:05:33.142Z,0.00
2022-11-27T04:06:33.111Z,0.00
2022-11-27T04:07:33.176Z,0.00
2022-11-27T04:08:33.083Z,0.00
2022-11-27T04:09:33.295Z,0.00
2022-11-27T04:10:33.069Z,0.00
2022-11-27T04:11:33.064Z,0.00
2022-11-27T04:12:33.055Z,0.00
2022-11-27T04:13:33.032Z,0.00
2022-11-27T04:14:33.067Z,0.00
2022-11-27T04:15:33.014Z,0.00
2022-11-27T04:16:33.082Z,0.00
2022-11-27T04:17:33.000Z,0.00
2022-11-27T04:18:32.966Z,0.00
2022-11-27T04:19:32.992Z,0.00
2022-11-27T04:20:32.952Z,0.00
2022-11-27T04:21:32.949Z,0.00
2022-11-27T04:22:32.944Z,0.00
2022-11-27T04:23:32.950Z,0.00
2022-11-27T04:24:32.919Z,0.00
2022-11-27T04:25:32.919Z,0.00
2022-11-27T04:26:32.907Z,0.00
2022-11-27T04:27:32.871Z,0.00
2022-11-27T04:28:32.919Z,0.00
2022-11-27T04:29:32.867Z,0.00
2022-11-27T04:30:32.849Z,0.00
2022-11-27T04:31:32.911Z,0.00
2022-11-27T04:32:32.813Z,0.00
2022-11-27T04:33:32.855Z,0.00
2022-11-27T04:34:32.803Z,0.00
2022-11-27T04:35:32.787Z,0.00
2022-11-27T04:36:38.802Z,0.00
2022-11-27T04:37:32.789Z,0.00
2022-11-27T04:38:32.789Z,0.00
2022-11-27T04:39:32.749Z,0.00
2022-11-27T04:40:32.763Z,0.00
2022-11-27T04:41:32.723Z,0.00
2022-11-27T04:42:32.753Z,0.00
2022-11-27T04:43:32.736Z,0.00
2022-11-27T04:44:32.755Z,0.00
2022-11-27T04:45:32.701Z,0.00
2022-11-27T04:46:32.732Z,0.00
2022-11-27T04:47:32.660Z,0.00
2022-11-27T04:48:32.639Z,0.00
2022-11-27T04:49:32.622Z,0.00
2022-11-27T04:50:32.635Z,0.00
2022-11-27T04:51:32.658Z,0.00
2022-11-27T04:52:32.631Z,0.00
2022-11-27T04:53:32.599Z,0.00
2022-11-27T04:54:32.598Z,0.00
2022-11-27T04:55:32.570Z,0.00
2022-11-27T04:56:32.563Z,0.00
2022-11-27T04:57:32.550Z,0.00
2022-11-27T04:58:32.539Z,0.00
2022-11-27T04:59:32.604Z,0.00
2022-11-27T05:00:32.537Z,0.00
2022-11-27T05:01:32.548Z,0.00
2022-11-27T05:02:32.506Z,0.00
2022-11-27T05:03:32.510Z,0.00
2022-11-27T05:04:32.488Z,0.00
2022-11-27T05:05:32.458Z,0.00
2022-11-27T05:06:32.470Z,0.00
2022-11-27T05:07:32.503Z,0.00
2022-11-27T05:08:32.406Z,0.00
2022-11-27T05:09:32.445Z,0.00
2022-11-27T05:10:32.420Z,0.00
2022-11-27T05:11:32.405Z,0.00
2022-11-27T05:12:32.504Z,0.00
2022-11-27T05:13:32.384Z,0.00
2022-11-27T05:14:32.366Z,0.00
2022-11-27T05:15:32.405Z,0.00
2022-11-27T05:16:32.442Z,0.00
2022-11-27T05:17:32.358Z,0.00
2022-11-27T05:18:32.316Z,0.00
2022-11-27T05:19:32.351Z,0.00
2022-11-27T05:20:32.320Z,0.00
2022-11-27T05:21:32.295Z,0.00
2022-11-27T05:22:32.290Z,0.00
2022-11-27T05:23:32.262Z,0.00
2022-11-27T05:24:32.262Z,0.00
2022-11-27T05:25:32.264Z,0.00
2022-11-27T05:26:32.267Z,0.00
2022-11-27T05:27:32.220Z,0.00
2022-11-27T05:28:32.251Z,0.00
2022-11-27T05:29:32.188Z,0.00
2022-11-27T05:30:32.268Z,0.00
2022-11-27T05:31:32.195Z,0.00
2022-11-27T05:32:32.178Z,0.00
2022-11-27T05:33:32.212Z,0.00
2022-11-27T05:34:32.137Z,0.00
2022-11-27T05:35:32.154Z,0.00
2022-11-27T05:36:32.147Z,0.00
2022-11-27T05:37:32.106Z,0.00
2022-11-27T05:38:32.093Z,0.00
2022-11-27T05:39:32.088Z,0.00
2022-11-27T05:40:32.070Z,0.00
2022-11-27T05:41:32.056Z,0.00
2022-11-27T05:42:32.135Z,0.00
2022-11-27T05:43:32.038Z,0.00
2022-11-27T05:44:32.051Z,0.00
2022-11-27T05:45:32.052Z,0.00
2022-11-27T05:46:38.646Z,0.00
2022-11-27T05:47:31.988Z,0.00
2022-11-27T05:48:31.988Z,0.00
2022-11-27T05:49:31.994Z,0.00
2022-11-27T05:50:31.983Z,0.00
2022-11-27T05:51:31.967Z,0.00
2022-11-27T05:52:31.964Z,0.00
2022-11-27T05:53:31.913Z,0.00
2022-11-27T05:54:31.989Z,0.00
2022-11-27T05:55:31.935Z,0.00
2022-11-27T05:56:31.913Z,0.00
2022-11-27T05:57:31.869Z,0.00
2022-11-27T05:58:31.878Z,0.00
2022-11-27T05:59:31.937Z,0.00
2022-11-27T06:00:31.880Z,0.00
2022-11-27T06:01:31.963Z,0.00
2022-11-27T06:02:31.966Z,0.00
2022-11-27T06:03:31.911Z,0.00
2022-11-27T06:04:31.822Z,0.00
2022-11-27T06:05:31.784Z,0.00
2022-11-27T06:06:31.832Z,0.00
2022-11-27T06:07:31.888Z,0.00
2022-11-27T06:08:31.762Z,0.00
2022-11-27T06:09:31.769Z,0.00
2022-11-27T06:10:31.807Z,0.00
2022-11-27T06:11:31.791Z,0.00
2022-11-27T06:12:31.711Z,0.00
2022-11-27T06:13:31.713Z,0.00
2022-11-27T06:14:31.714Z,0.00
2022-11-27T06:15:31.689Z,0.00
2022-11-27T06:16:31.712Z,0.00
2022-11-27T06:17:31.681Z,0.00
2022-11-27T06:18:31.665Z,0.00
2022-11-27T06:19:31.651Z,0.00
2022-11-27T06:20:31.654Z,0.00
2022-11-27T06:21:31.649Z,0.00
2022-11-27T06:22:31.612Z,0.00
2022-11-27T06:23:31.605Z,0.00
2022-11-27T06:24:31.582Z,0.00
2022-11-27T06:25:31.582Z,0.00
2022-11-27T06:26:31.554Z,0.00
2022-11-27T06:27:31.572Z,0.00
2022-11-27T06:28:31.552Z,0.00
2022-11-27T06:29:31.640Z,0.00
2022-11-27T06:30:31.527Z,0.00
2022-11-27T06:31:31.540Z,0.00
2022-11-27T06:32:31.553Z,0.00
2022-11-27T06:33:31.513Z,0.00
2022-11-27T06:34:31.513Z,0.00
2022-11-27T06:35:31.468Z,0.00
2022-11-27T06:36:38.067Z,0.00
2022-11-27T06:37:31.670Z,0.00
2022-11-27T06:38:31.438Z,0.00
2022-11-27T06:39:31.446Z,0.00
2022-11-27T06:40:31.413Z,0.00
2022-11-27T06:41:31.404Z,0.00
2022-11-27T06:42:31.408Z,0.00
2022-11-27T06:43:31.373Z,0.00
2022-11-27T06:44:31.351Z,0.00
2022-11-27T06:45:31.433Z,0.00
2022-11-27T06:46:31.360Z,0.00
2022-11-27T06:47:31.328Z,0.00
2022-11-27T06:48:31.372Z,0.00
2022-11-27T06:49:31.318Z,0.00
2022-11-27T06:50:31.289Z,0.00
2022-11-27T06:51:31.302Z,0.00
2022-11-27T06:52:33.648Z,0.00
2022-11-27T06:53:31.265Z,0.00
2022-11-27T06:54:31.237Z,0.00
2022-11-27T06:55:31.254Z,0.00
2022-11-27T06:56:31.232Z,0.00
2022-11-27T06:57:31.224Z,0.00
2022-11-27T06:58:31.493Z,0.00
2022-11-27T06:59:31.190Z,0.00
2022-11-27T07:00:31.194Z,5.62
2022-11-27T07:01:31.300Z,5.62
2022-11-27T07:02:31.211Z,5.62
2022-11-27T07:03:31.214Z,5.62
2022-11-27T07:04:31.146Z,5.62
2022-11-27T07:05:31.130Z,5.62
2022-11-27T07:06:31.130Z,5.62
2022-11-27T07:07:31.128Z,5.62
2022-11-27T07:08:31.102Z,5.62
2022-11-27T07:09:31.089Z,5.62
2022-11-27T07:10:31.091Z,5.62
2022-11-27T07:11:31.074Z,5.62
2022-11-27T07:12:31.058Z,5.62
2022-11-27T07:13:31.028Z,5.62
2022-11-27T07:14:31.057Z,5.62
2022-11-27T07:15:31.010Z,11.25
2022-11-27T07:16:31.081Z,11.25
2022-11-27T07:17:31.004Z,11.25
2022-11-27T07:18:30.980Z,11.25
2022-11-27T07:19:31.005Z,11.25
2022-11-27T07:20:30.980Z,16.88
2022-11-27T07:21:30.958Z,16.88
2022-11-27T07:22:30.954Z,16.88
2022-11-27T07:23:30.928Z,22.50
2022-11-27T07:24:30.922Z,22.50
2022-11-27T07:25:30.973Z,22.50
2022-11-27T07:26:30.894Z,28.12
2022-11-27T07:27:30.934Z,28.12
2022-11-27T07:28:30.870Z,28.12
2022-11-27T07:29:30.859Z,28.12
2022-11-27T07:30:30.849Z,28.12
2022-11-27T07:31:30.878Z,28.12
2022-11-27T07:32:30.824Z,28.12
2022-11-27T07:33:30.828Z,28.12
2022-11-27T07:34:30.882Z,28.12
2022-11-27T07:35:30.812Z,28.12
2022-11-27T07:36:30.793Z,28.12
2022-11-27T07:37:30.767Z,28.12
2022-11-27T07:38:30.751Z,28.12
2022-11-27T07:40:00.167Z,28.12
2022-11-27T07:40:30.760Z,28.12
2022-11-27T07:41:33.871Z,28.12
2022-11-27T07:42:38.115Z,28.12
2022-11-27T07:43:30.737Z,33.75
2022-11-27T07:44:30.725Z,33.75
2022-11-27T07:45:30.700Z,33.75
2022-11-27T07:46:30.685Z,33.75
2022-11-27T07:47:30.677Z,33.75
2022-11-27T07:48:30.656Z,28.12
2022-11-27T07:49:30.658Z,33.75
2022-11-27T07:50:30.635Z,33.75
2022-11-27T07:51:30.620Z,33.75
2022-11-27T07:52:30.624Z,33.75
2022-11-27T07:53:30.615Z,33.75
2022-11-27T07:54:30.570Z,39.38
2022-11-27T07:55:30.606Z,39.38
2022-11-27T07:56:37.656Z,39.38
2022-11-27T07:57:30.564Z,45.00
2022-11-27T07:58:30.558Z,45.00
2022-11-27T07:59:30.541Z,50.62
2022-11-27T08:00:30.528Z,50.62
2022-11-27T08:01:30.608Z,56.25
2022-11-27T08:02:30.501Z,56.25
2022-11-27T08:03:30.487Z,56.25
2022-11-27T08:04:30.539Z,61.88
2022-11-27T08:05:30.539Z,67.50
2022-11-27T08:06:30.433Z,67.50
2022-11-27T08:07:30.550Z,73.12
2022-11-27T08:08:30.441Z,73.12
2022-11-27T08:09:30.430Z,73.12
2022-11-27T08:10:30.417Z,73.12
2022-11-27T08:11:30.437Z,78.75
2022-11-27T08:12:30.389Z,78.75
2022-11-27T08:13:30.423Z,78.75
2022-11-27T08:14:30.344Z,78.75
2022-11-27T08:15:30.345Z,78.75
2022-11-27T08:16:36.955Z,78.75
2022-11-27T08:17:30.353Z,84.38
2022-11-27T08:18:30.340Z,84.38
2022-11-27T08:19:30.327Z,84.38
2022-11-27T08:20:30.387Z,84.38
2022-11-27T08:21:30.276Z,84.38
2022-11-27T08:22:30.256Z,84.38
2022-11-27T08:23:30.273Z,84.38
2022-11-27T08:24:30.257Z,90.00
2022-11-27T08:25:30.256Z,90.00
2022-11-27T08:26:30.230Z,95.62
2022-11-27T08:27:30.240Z,95.62
2022-11-27T08:28:30.202Z,101.25
2022-11-27T08:29:33.912Z,106.88
2022-11-27T08:30:30.172Z,106.88
2022-11-27T08:31:30.217Z,112.50
2022-11-27T08:32:30.146Z,112.50
2022-11-27T08:33:30.182Z,118.12
2022-11-27T08:34:30.126Z,123.75
2022-11-27T08:35:30.156Z,129.38
2022-11-27T08:36:36.680Z,135.00
2022-11-27T08:37:30.133Z,135.00
2022-11-27T08:38:30.126Z,135.00
2022-11-27T08:39:30.076Z,140.62
2022-11-27T08:40:30.088Z,140.62
2022-11-27T08:41:30.058Z,135.00
2022-11-27T08:42:30.041Z,140.62
2022-11-27T08:43:30.052Z,140.62
2022-11-27T08:44:30.030Z,135.00
2022-11-27T08:45:30.099Z,135.00
2022-11-27T08:46:30.042Z,135.00
2022-11-27T08:47:30.005Z,135.00
2022-11-27T08:48:29.971Z,129.38
2022-11-27T08:49:29.996Z,129.38
2022-11-27T08:50:29.963Z,129.38
2022-11-27T08:51:29.987Z,129.38
2022-11-27T08:52:29.953Z,129.38
2022-11-27T08:53:29.946Z,129.38
2022-11-27T08:54:29.915Z,129.38
2022-11-27T08:55:29.934Z,123.75
2022-11-27T08:56:36.411Z,118.12
2022-11-27T08:57:29.883Z,112.50
2022-11-27T08:58:29.885Z,112.50
2022-11-27T08:59:29.853Z,106.88
2022-11-27T09:00:29.873Z,106.88
2022-11-27T09:01:29.905Z,106.88
2022-11-27T09:02:29.833Z,106.88
2022-11-27T09:03:29.810Z,112.50
2022-11-27T09:04:29.885Z,112.50
2022-11-27T09:05:29.809Z,112.50
2022-11-27T09:06:29.776Z,118.12
2022-11-27T09:07:29.870Z,118.12
2022-11-27T09:08:29.788Z,123.75
2022-11-27T09:09:29.776Z,123.75
2022-11-27T09:10:29.738Z,129.38
2022-11-27T09:11:29.744Z,129.38
2022-11-27T09:12:29.737Z,135.00
2022-11-27T09:13:29.721Z,140.62
2022-11-27T09:14:29.730Z,146.25
2022-11-27T09:15:29.670Z,146.25
2022-11-27T09:16:29.782Z,151.88
2022-11-27T09:17:29.692Z,157.50
2022-11-27T09:18:29.680Z,157.50
2022-11-27T09:19:29.668Z,157.50
2022-11-27T09:20:29.660Z,163.12
2022-11-27T09:21:30.137Z,163.12
2022-11-27T09:22:29.630Z,163.12
2022-11-27T09:23:29.613Z,163.12
2022-11-27T09:24:29.614Z,163.12
2022-11-27T09:25:29.607Z,168.75
2022-11-27T09:26:29.579Z,168.75
2022-11-27T09:27:29.568Z,168.75
2022-11-27T09:28:31.528Z,163.12
2022-11-27T09:29:29.530Z,163.12
2022-11-27T09:30:29.543Z,163.12
2022-11-27T09:31:29.663Z,157.50
2022-11-27T09:32:29.528Z,157.50
2022-11-27T09:33:29.520Z,151.88
2022-11-27T09:34:33.375Z,146.25
2022-11-27T09:35:29.542Z,146.25
2022-11-27T09:36:29.444Z,140.62
2022-11-27T09:37:29.458Z,135.00
2022-11-27T09:38:29.519Z,129.38
2022-11-27T09:39:29.432Z,123.75
2022-11-27T09:40:29.413Z,118.12
2022-11-27T09:41:29.409Z,112.50
2022-11-27T09:42:29.387Z,112.50
2022-11-27T09:43:29.402Z,112.50
2022-11-27T09:44:29.371Z,118.12
2022-11-27T09:45:29.471Z,118.12
2022-11-27T09:46:29.368Z,123.75
2022-11-27T09:47:29.344Z,129.38
2022-11-27T09:48:29.381Z,140.62
2022-11-27T09:49:29.333Z,146.25
2022-11-27T09:50:29.301Z,151.88
2022-11-27T09:51:29.307Z,163.12
2022-11-27T09:52:29.275Z,174.38
2022-11-27T09:53:29.259Z,180.00
2022-11-27T09:54:29.274Z,191.25
2022-11-27T09:55:29.243Z,196.88
2022-11-27T09:56:29.262Z,202.50
2022-11-27T09:57:29.240Z,208.12
2022-11-27T09:58:29.204Z,219.38
2022-11-27T09:59:29.228Z,219.38
2022-11-27T10:00:29.196Z,230.62
2022-11-27T10:01:38.222Z,241.88
2022-11-27T10:02:29.380Z,253.12
2022-11-27T10:03:29.201Z,270.00
2022-11-27T10:04:39.877Z,281.25
2022-11-27T10:05:29.120Z,298.12
2022-11-27T10:06:29.184Z,315.00
2022-11-27T10:07:29.163Z,326.25
2022-11-27T10:08:29.130Z,331.88
2022-11-27T10:09:29.155Z,326.25
2022-11-27T10:10:29.080Z,331.88
2022-11-27T10:11:29.063Z,337.50
2022-11-27T10:12:29.047Z,354.38
2022-11-27T10:13:29.023Z,354.38
2022-11-27T10:14:29.042Z,331.88
2022-11-27T10:15:29.022Z,320.62
2022-11-27T10:16:38.015Z,315.00
2022-11-27T10:17:29.019Z,315.00
2022-11-27T10:18:29.023Z,320.62
2022-11-27T10:19:28.976Z,326.25
2022-11-27T10:20:28.963Z,326.25
2022-11-27T10:21:28.960Z,320.62
2022-11-27T10:22:28.964Z,337.50
2022-11-27T10:23:28.932Z,360.00
2022-11-27T10:24:28.926Z,371.25
2022-11-27T10:25:28.926Z,388.12
2022-11-27T10:26:28.933Z,376.88
2022-11-27T10:27:28.865Z,393.75
2022-11-27T10:28:28.905Z,393.75
2022-11-27T10:29:28.860Z,405.00
2022-11-27T10:30:28.841Z,405.00
2022-11-27T10:31:28.901Z,410.62
2022-11-27T10:33:28.814Z,416.25
2022-11-27T10:34:28.823Z,410.62
2022-11-27T10:35:28.820Z,405.00
2022-11-27T10:36:35.315Z,393.75
2022-11-27T10:37:28.767Z,382.50
2022-11-27T10:38:28.799Z,371.25
2022-11-27T10:39:28.726Z,360.00
2022-11-27T10:40:28.806Z,354.38
2022-11-27T10:41:48.109Z,348.75
2022-11-27T10:42:28.739Z,354.38
2022-11-27T10:43:28.741Z,360.00
2022-11-27T10:44:28.692Z,343.12
2022-11-27T10:45:28.735Z,320.62
2022-11-27T10:46:28.724Z,303.75
2022-11-27T10:47:33.508Z,292.50
2022-11-27T10:48:28.749Z,292.50
2022-11-27T10:49:28.726Z,286.88
2022-11-27T10:50:28.658Z,275.62
2022-11-27T10:51:28.622Z,264.38
2022-11-27T10:52:28.587Z,264.38
2022-11-27T10:53:28.579Z,258.75
2022-11-27T10:54:28.569Z,253.12
2022-11-27T10:55:28.560Z,253.12
2022-11-27T10:56:28.555Z,247.50
2022-11-27T10:57:28.521Z,247.50
2022-11-27T10:58:28.547Z,247.50
2022-11-27T10:59:32.981Z,253.12
2022-11-27T11:00:28.550Z,258.75
2022-11-27T11:01:28.569Z,264.38
2022-11-27T11:02:28.541Z,264.38
2022-11-27T11:03:28.472Z,270.00
2022-11-27T11:04:43.782Z,270.00
2022-11-27T11:05:41.333Z,270.00
2022-11-27T11:06:28.635Z,270.00
2022-11-27T11:07:28.504Z,270.00
2022-11-27T11:08:28.416Z,264.38
2022-11-27T11:09:28.417Z,270.00
2022-11-27T11:10:28.386Z,270.00
2022-11-27T11:11:28.465Z,275.62
2022-11-27T11:12:28.372Z,275.62
2022-11-27T11:13:28.352Z,286.88
2022-11-27T11:14:28.364Z,286.88
2022-11-27T11:15:28.347Z,281.25
2022-11-27T11:16:33.288Z,281.25
2022-11-27T11:17:28.482Z,281.25
2022-11-27T11:18:28.286Z,275.62
2022-11-27T11:19:28.293Z,292.50
2022-11-27T11:20:28.266Z,298.12
2022-11-27T11:21:28.261Z,303.75
2022-11-27T11:22:28.269Z,303.75
2022-11-27T11:23:28.272Z,303.75
2022-11-27T11:24:28.225Z,286.88
2022-11-27T11:25:28.238Z,281.25
2022-11-27T11:26:28.229Z,281.25
2022-11-27T11:27:28.194Z,286.88
2022-11-27T11:28:28.183Z,281.25
2022-11-27T11:29:28.212Z,281.25
2022-11-27T11:30:28.192Z,286.88
2022-11-27T11:31:28.179Z,286.88
2022-11-27T11:32:28.173Z,286.88
2022-11-27T11:33:28.138Z,292.50
2022-11-27T11:34:28.160Z,298.12
2022-11-27T11:35:28.922Z,303.75
2022-11-27T11:36:28.110Z,315.00
2022-11-27T11:37:28.083Z,315.00
2022-11-27T11:38:28.093Z,315.00
2022-11-27T11:39:28.085Z,309.38
2022-11-27T11:40:28.071Z,331.88
2022-11-27T11:41:28.034Z,320.62
2022-11-27T11:42:28.068Z,303.75
2022-11-27T11:43:28.010Z,303.75
2022-11-27T11:44:28.032Z,303.75
2022-11-27T11:45:32.295Z,298.12
2022-11-27T11:46:28.085Z,292.50
2022-11-27T11:47:27.985Z,298.12
2022-11-27T11:48:28.010Z,309.38
2022-11-27T11:49:27.967Z,298.12
2022-11-27T11:50:27.955Z,303.75
2022-11-27T11:51:29.443Z,292.50
2022-11-27T11:52:27.926Z,281.25
2022-11-27T11:53:27.910Z,275.62
2022-11-27T11:54:27.919Z,275.62
2022-11-27T11:55:27.874Z,270.00
2022-11-27T11:56:34.425Z,264.38
2022-11-27T11:57:27.882Z,264.38
2022-11-27T11:58:27.850Z,253.12
2022-11-27T11:59:27.831Z,241.88
2022-11-27T12:00:30.934Z,241.88
2022-11-27T12:01:27.953Z,241.88
2022-11-27T12:02:27.853Z,241.88
2022-11-27T12:03:27.792Z,241.88
2022-11-27T12:04:27.882Z,241.88
2022-11-27T12:05:27.806Z,236.25
2022-11-27T12:06:27.765Z,236.25
2022-11-27T12:07:27.754Z,230.62
2022-11-27T12:08:27.734Z,225.00
2022-11-27T12:09:27.710Z,225.00
2022-11-27T12:10:27.729Z,213.75
2022-11-27T12:11:27.947Z,208.12
2022-11-27T12:12:27.707Z,202.50
2022-11-27T12:13:30.357Z,196.88
2022-11-27T12:14:27.698Z,196.88
2022-11-27T12:15:27.666Z,191.25
2022-11-27T12:16:27.782Z,191.25
2022-11-27T12:17:27.646Z,191.25
2022-11-27T12:18:27.620Z,196.88
2022-11-27T12:19:27.622Z,196.88
2022-11-27T12:20:27.618Z,196.88
2022-11-27T12:21:27.608Z,202.50
2022-11-27T12:22:27.596Z,202.50
2022-11-27T12:23:27.598Z,202.50
2022-11-27T12:24:27.573Z,202.50
2022-11-27T12:25:27.539Z,202.50
2022-11-27T12:26:27.560Z,202.50
2022-11-27T12:27:27.520Z,196.88
2022-11-27T12:28:27.547Z,202.50
2022-11-27T12:29:27.519Z,202.50
2022-11-27T12:30:27.477Z,202.50
2022-11-27T12:31:27.546Z,202.50
2022-11-27T12:32:27.462Z,202.50
2022-11-27T12:33:27.472Z,202.50
2022-11-27T12:34:27.451Z,202.50
2022-11-27T12:35:27.447Z,196.88
2022-11-27T12:36:27.423Z,191.25
2022-11-27T12:37:27.422Z,191.25
2022-11-27T12:38:27.385Z,185.62
2022-11-27T12:39:27.405Z,185.62
2022-11-27T12:40:27.393Z,180.00
2022-11-27T12:41:27.379Z,174.38
2022-11-27T12:42:27.371Z,168.75
2022-11-27T12:43:27.349Z,168.75
2022-11-27T12:44:27.389Z,168.75
2022-11-27T12:45:27.406Z,163.12
2022-11-27T12:46:27.352Z,163.12
2022-11-27T12:47:27.301Z,151.88
2022-11-27T12:48:27.292Z,151.88
2022-11-27T12:49:27.272Z,140.62
2022-11-27T12:50:27.248Z,129.38
2022-11-27T12:51:27.259Z,123.75
2022-11-27T12:52:27.251Z,118.12
2022-11-27T12:53:27.223Z,118.12
2022-11-27T12:54:27.202Z,118.12
2022-11-27T12:55:27.205Z,118.12
2022-11-27T12:56:27.213Z,118.12
2022-11-27T12:57:27.176Z,118.12
2022-11-27T12:58:27.215Z,118.12